地図

経路データ

SID SEASON NUMBER BASIN SUBBASIN NAME ISO_TIME NATURE LAT LON WMO_WIND WMO_PRES WMO_AGENCY TRACK_TYPE DIST2LAND LANDFALL IFLAG USA_AGENCY USA_ATCF_ID USA_LAT USA_LON USA_RECORD USA_STATUS USA_WIND USA_PRES USA_SSHS USA_R34_NE USA_R34_SE USA_R34_SW USA_R34_NW USA_R50_NE USA_R50_SE USA_R50_SW USA_R50_NW USA_R64_NE USA_R64_SE USA_R64_SW USA_R64_NW USA_POCI USA_ROCI USA_RMW USA_EYE TOKYO_LAT TOKYO_LON TOKYO_GRADE TOKYO_WIND TOKYO_PRES TOKYO_R50_DIR TOKYO_R50_LONG TOKYO_R50_SHORT TOKYO_R30_DIR TOKYO_R30_LONG TOKYO_R30_SHORT TOKYO_LAND CMA_LAT CMA_LON CMA_CAT CMA_WIND CMA_PRES HKO_LAT HKO_LON HKO_CAT HKO_WIND HKO_PRES NEWDELHI_LAT NEWDELHI_LON NEWDELHI_GRADE NEWDELHI_WIND NEWDELHI_PRES NEWDELHI_CI NEWDELHI_DP NEWDELHI_POCI REUNION_LAT REUNION_LON REUNION_TYPE REUNION_WIND REUNION_PRES REUNION_TNUM REUNION_CI REUNION_RMW REUNION_R34_NE REUNION_R34_SE REUNION_R34_SW REUNION_R34_NW REUNION_R50_NE REUNION_R50_SE REUNION_R50_SW REUNION_R50_NW REUNION_R64_NE REUNION_R64_SE REUNION_R64_SW REUNION_R64_NW BOM_LAT BOM_LON BOM_TYPE BOM_WIND BOM_PRES BOM_TNUM BOM_CI BOM_RMW BOM_R34_NE BOM_R34_SE BOM_R34_SW BOM_R34_NW BOM_R50_NE BOM_R50_SE BOM_R50_SW BOM_R50_NW BOM_R64_NE BOM_R64_SE BOM_R64_SW BOM_R64_NW BOM_ROCI BOM_POCI BOM_EYE BOM_POS_METHOD BOM_PRES_METHOD NADI_LAT NADI_LON NADI_CAT NADI_WIND NADI_PRES WELLINGTON_LAT WELLINGTON_LON WELLINGTON_WIND WELLINGTON_PRES DS824_LAT DS824_LON DS824_STAGE DS824_WIND DS824_PRES TD9636_LAT TD9636_LON TD9636_STAGE TD9636_WIND TD9636_PRES TD9635_LAT TD9635_LON TD9635_WIND TD9635_PRES TD9635_ROCI NEUMANN_LAT NEUMANN_LON NEUMANN_CLASS NEUMANN_WIND NEUMANN_PRES MLC_LAT MLC_LON MLC_CLASS MLC_WIND MLC_PRES USA_GUST BOM_GUST BOM_GUST_PER REUNION_GUST REUNION_GUST_PER USA_SEAHGT USA_SEARAD_NE USA_SEARAD_SE USA_SEARAD_SW USA_SEARAD_NW STORM_SPEED STORM_DIR
1966295N12071 1966 99 NI AS NOT_NAMED 1966-10-21 18:00:00 TS 11.7000 70.7000 main 462 462 O________O____ jtwc_io IO111966 11.7000 70.7000 -1 11.7000 70.7000 TC 2 292
1966295N12071 1966 99 NI AS NOT_NAMED 1966-10-21 21:00:00 TS 11.7324 70.6150 main 472 470 P________P____ IO111966 11.7324 70.6150 -1 11.7324 70.6150 TC 3 289
1966295N12071 1966 99 NI AS NOT_NAMED 1966-10-22 00:00:00 TS 11.8000 70.4000 main 491 491 O________O____ jtwc_io IO111966 11.8000 70.4000 -1 11.8000 70.4000 TC 25 7 287
1966295N12071 1966 99 NI AS NOT_NAMED 1966-10-22 03:00:00 TS 11.9245 69.9711 main 531 531 P________PO___ IO111966 11.9275 69.9675 -1 11.9275 69.9675 TC 25 11.9000 70.0000 1 10 287
1966295N12071 1966 99 NI AS NOT_NAMED 1966-10-22 06:00:00 TS 12.1036 69.4029 main 590 590 O________OP___ jtwc_io IO111966 12.1000 69.4000 -1 12.1000 69.4000 TC 25 12.1180 69.4147 1 12 289
1966295N12071 1966 99 NI AS NOT_NAMED 1966-10-22 09:00:00 TS 12.3077 68.8227 main 634 634 P________PP___ IO111966 12.2999 68.8225 -1 12.2999 68.8225 TC 25 12.3283 68.8231 1 12 289
1966295N12071 1966 99 NI AS NOT_NAMED 1966-10-22 12:00:00 TS 12.5082 68.2067 main 681 681 O________OP___ jtwc_io IO111966 12.5000 68.2000 -1 12.5000 68.2000 TC 25 12.5245 68.2200 1 13 287
1966295N12071 1966 99 NI AS NOT_NAMED 1966-10-22 15:00:00 TS 12.6716 67.5716 main 731 731 P________PO___ IO111966 12.6574 67.5574 -1 12.6574 67.5574 TC 25 12.7000 67.6000 1 13 284
1966295N12071 1966 99 NI AS NOT_NAMED 1966-10-22 18:00:00 TS 12.8163 66.9201 main 797 797 O________OP___ jtwc_io IO111966 12.8000 66.9000 -1 12.8000 66.9000 TC 25 12.8488 66.9603 1 13 283
1966295N12071 1966 99 NI AS NOT_NAMED 1966-10-22 21:00:00 TS 12.9707 66.2642 main 848 848 P________PP___ IO111966 12.9724 66.2426 -1 12.9724 66.2426 TC 25 12.9672 66.3075 1 13 282
1966295N12071 1966 99 NI AS NOT_NAMED 1966-10-23 00:00:00 TS 13.0840 65.6170 main 911 911 O________OP___ jtwc_io IO111966 13.1000 65.6000 -1 13.1000 65.6000 TC 25 13.0519 65.6510 1 12 277
1966295N12071 1966 99 NI AS NOT_NAMED 1966-10-23 03:00:00 TS 13.1198 64.9999 main 970 966 P________PO___ IO111966 13.1298 64.9999 -1 13.1298 64.9999 TC 25 13.1000 65.0000 1 12 271
1966295N12071 1966 99 NI AS NOT_NAMED 1966-10-23 06:00:00 TS 13.1021 64.3905 main 966 920 O________OP___ jtwc_io IO111966 13.1000 64.4000 -1 13.1000 64.4000 TC 25 13.1063 64.3714 1 12 267
1966295N12071 1966 99 NI AS NOT_NAMED 1966-10-23 09:00:00 TS 13.0597 63.7497 main 912 878 P________PP___ IO111966 13.0499 63.7499 -1 13.0499 63.7499 TC 25 13.0792 63.7494 1 13 266
1966295N12071 1966 99 NI AS NOT_NAMED 1966-10-23 12:00:00 TS 13.0125 63.1092 main 878 838 O________OP___ jtwc_io IO111966 13.0000 63.1000 -1 13.0000 63.1000 TC 25 13.0375 63.1277 1 12 267
1966295N12071 1966 99 NI AS NOT_NAMED 1966-10-23 15:00:00 TS 12.9948 62.5000 main 838 801 P________PO___ IO111966 12.9923 62.5001 -1 12.9923 62.5001 TC 25 13.0000 62.5000 1 12 269
1966295N12071 1966 99 NI AS NOT_NAMED 1966-10-23 18:00:00 TS 13.0015 61.8858 main 801 739 O________OP___ jtwc_io IO111966 13.0000 61.9000 -1 13.0000 61.9000 TC 25 13.0046 61.8575 1 12 270
1966295N12071 1966 99 NI AS NOT_NAMED 1966-10-23 21:00:00 TS 13.0047 61.2410 main 728 663 P________PP___ IO111966 12.9999 61.2575 -1 12.9999 61.2575 TC 25 13.0145 61.2079 1 13 270
1966295N12071 1966 99 NI AS NOT_NAMED 1966-10-24 00:00:00 TS 13.0057 60.5848 main 663 598 O________OP___ jtwc_io IO111966 13.0000 60.6000 -1 13.0000 60.6000 TC 25 13.0171 60.5544 1 13 270
1966295N12071 1966 99 NI AS NOT_NAMED 1966-10-24 03:00:00 TS 13.0099 59.9334 main 587 522 P________PO___ IO111966 13.0148 59.9501 -1 13.0148 59.9501 TC 25 13.0000 59.9000 1 13 269
1966295N12071 1966 99 NI AS NOT_NAMED 1966-10-24 06:00:00 TS 12.9816 59.2790 main 522 457 O________OP___ jtwc_io IO111966 13.0000 59.3000 -1 13.0000 59.3000 TC 25 12.9541 59.2475 1 13 265
1966295N12071 1966 99 NI AS NOT_NAMED 1966-10-24 09:00:00 TS 12.9046 58.6271 main 446 380 P________PP___ IO111966 12.9203 58.6498 -1 12.9203 58.6498 TC 25 12.8837 58.5969 1 13 262
1966295N12071 1966 99 NI AS NOT_NAMED 1966-10-24 12:00:00 TS 12.7982 57.9739 main 380 304 O________OP___ jtwc_io IO111966 12.8000 58.0000 -1 12.8000 58.0000 TC 25 12.7965 57.9479 1 13 261
1966295N12071 1966 99 NI AS NOT_NAMED 1966-10-24 15:00:00 NR 12.7000 57.3000 main 304 __________O___ IO111966 -1 TC 12.7000 57.3000 1 13 261

IBTrACS Databaseについて

本データベースは、米国NOAAが公開する1842年以降の世界の熱帯低気圧のベストトラックデータアーカイブInternational Best Track Archive for Climate Stewardship (IBTrACS)を、ウェブで閲覧しやすい形式に変換したものです。

最終更新日:2021-10-27